SÍGUENOS

APP INUMET

Disponible en Google Play

Productos aeronáuticos

  • SIGMET
  • METAR / SPECI
  • TAF
  • AIREP
  • Aviso de aeródromo
  • Pronárea
  • Carta superficie

Mensajes METAR de la última hora

SULS 162300Z 35007KT CAVOK 08/03 Q1021
SUMU 162300Z 00000KT CAVOK 09/03 Q1021 NOSIG

Mensajes METAR de la última hora - Internacionales


Argentina
SAAR 162300Z 05005KT CAVOK 12/05 Q1021
SABE 162300Z 34006KT CAVOK 15/06 Q1020
SACO 162300Z 02009KT CAVOK 13/M02 Q1019
SAEZ 162300Z 00000KT CAVOK 05/01 Q1020
SAME 162300Z 36002KT CAVOK 16/02 Q1016
Bolivia
SLLP 162300Z 32006KT 9999 FEW015 SCT200 10/M10 Q1033
Brasil
SBBR 162300Z 14007KT CAVOK 22/07 Q1018
SBFI 162300Z 00000KT CAVOK 18/16 Q1017
SBFL 162300Z 13005KT 9999 SCT049 18/15 Q1020
SBGR 162300Z 11002KT 6000 BKN006 16/16 Q1021
SBPA 162300Z 16006KT CAVOK 15/12 Q1020
SBRJ 162300Z 02005KT 5000 -RA BR FEW008 BKN010 OVC025 20/19 Q10 18
SBSP 162300Z 17007KT 4500 BR OVC003 15/14 Q1022
Colombia
SKBO 162300Z 14003KT 9999 SCT020 SCT080 16/11 A3028 REDZ
Chile
SCCI 162300Z 26019KT 9999 FEW040 01/M04 Q0997 NOSIG
SCEL 162300Z 14006KT CAVOK 15/08 Q1018 NOSIG
Ecuador
SEQM 162300Z 03009KT 340V060 9999 SCT033 SCT300 16/12 Q1023 NOSIG RMK A3023
EEUU
KIAD 162315Z 00000KT 7SM -RA BKN030CB BKN120 BKN250 26/21 A2999 RMK AO2 RAB2254 VIS S 2 CB S MOV SE CB DSNT NE-SE P0000 T02560211
KIAD 162257Z 28008KT 240V300 10SM -RA SCT040CB SCT120 BKN250 28/21 A2999 RMK AO2 RAB54 CB W MOV SE TCU DSNT E-SE P0000 T02780211
KMIA 162253Z 14008KT 10SM FEW040 FEW150 SCT250 32/22 A3004 RMK AO2 LTG DSNT W SLP174 CB DSNT W MOV SW T03170217
KDCA 162252Z 33007KT 10SM FEW065 SCT085 BKN110 BKN250 31/20 A2997 RMK AO2 SLP150 T03060200
KIAD 162252Z 01004KT 10SM SCT040CB SCT120 BKN250 29/21 A2999 RMK AO2 SLP152 VIS NW 2 CB W MOV SE TCU NE AND DSNT E-SE T02890206
KJFK 162251Z 04005KT 10SM FEW060 FEW075 SCT260 29/17 A2996 RMK AO2 SLP146 T02940172
KLGA 162251Z 33004KT 10SM FEW065 FEW085 29/17 A2995 RMK AO2 SLP142 T02890167
España
LEBL 162330Z 34004KT 9999 FEW025 24/16 Q1019 NOSIG
LEMD 162330Z 34006KT 280V040 CAVOK 27/07 Q1020 NOSIG
LEBL 162300Z 33004KT 9999 FEW025 24/17 Q1019 NOSIG
LEMD 162300Z 03006KT 340V070 CAVOK 29/05 Q1020 NOSIG
Francia
LFPO 162330Z 20002KT CAVOK 17/15 Q1018 NOSIG
LFPO 162300Z 19004KT CAVOK 18/15 Q1018 NOSIG
Inglaterra
EGLL 162320Z AUTO 16007KT 9999 //////TCU 17/12 Q1014
EGLL 162250Z AUTO 15007KT 9999 -RA NCD 17/13 Q1015 TEMPO RA
Panamá
MPTO 162300Z 20005KT 9999 SCT018 SCT080 28/26 Q1010 NOSIG
Paraguay
SGAS 162300Z 19008KT 8000 FEW033 22/13 Q1017
Venezuela
SVMI 162300Z 05002KT 9999 SCT016 29/25 Q1010

* Datos extraidos del Text DataServer de la NOAA (NOAA TEXT DATA SERVER)

Instituto Uruguayo de Meteorología

Dr. Javier Barrios Amorín 1488 - CP 11200
Mesa Central (598) 1895

Montevideo - Uruguay